FW1744 Isle of Palms SC US current weather conditions

sailwx.info

Wind from 093 at 1 knots gusting 7

Air temperature 23.9° C
Dewpoint 23.4° C

Last reported at 2020-Jul-07 17:00 UTC.
Time now 2020-Jul-07 18:03 UTC

Location: N 32°48' W 079°47'.
View on Google Maps.

See reports from other nearby stations

  
Tides and Currents Weather Stations Pressure Air Temp Water Temp Dewpoint Dewpoint Depression Visibility Wind Speed Wind Dir Waves Ship Positions
date/time (UTC)wind fromknots sea level pressurealtimeterstation pressurevisibilityair tempwater tempwave heightnotes
2020-Jul-07 17:00 093 1 gusting 7 23.9
2020-Jul-07 16:46 102 2 gusting 4 23.9
2020-Jul-07 16:31 094 1 gusting 4 23.9
2020-Jul-07 16:16 087 1 gusting 4 23.9
2020-Jul-07 16:01 087 0 gusting 4 23.9
2020-Jul-07 13:15 052 23.9
2020-Jul-07 13:01 049 1 gusting 2 24.4
2020-Jul-07 12:45 049 24.4
2020-Jul-07 12:30 048 1 gusting 3 23.9
2020-Jul-07 12:15 048 1 gusting 3 23.9
2020-Jul-07 12:00 047 1 gusting 3 23.9
2020-Jul-07 11:45 201 23.9
2020-Jul-07 11:30 201 0 gusting 2 23.3
2020-Jul-07 11:15 201 23.3
2020-Jul-07 11:01 201 23.3
2020-Jul-07 10:45 201 23.3
2020-Jul-07 10:30 201 2 gusting 8 23.3
2020-Jul-07 10:15 196 4 gusting 10 23.9
2020-Jul-07 10:00 321 1 gusting 6 23.9
2020-Jul-07 09:45 356 5 gusting 11 24.4
2020-Jul-07 09:30 300 7 gusting 19 25.0
2020-Jul-07 09:15 213 0 gusting 3 26.7
2020-Jul-07 09:00 213 26.7
2020-Jul-07 08:45 214 1 gusting 4 26.7
2020-Jul-07 08:30 196 2 gusting 5 26.7
2020-Jul-07 08:15 198 3 gusting 5 26.7
2020-Jul-07 08:00 191 2 gusting 5 26.7
2020-Jul-07 07:45 227 0 gusting 5 26.7
2020-Jul-07 07:31 199 1 gusting 4 26.1
2020-Jul-07 07:16 206 26.1
2020-Jul-07 07:01 194 0 gusting 4 26.1
2020-Jul-07 06:46 225 1 gusting 3 25.6
2020-Jul-07 06:32 193 0 gusting 2 25.6
2020-Jul-07 06:16 061 25.6
2020-Jul-07 06:01 062 0 gusting 3 25.6
2020-Jul-07 05:47 062 2 gusting 3 25.6
2020-Jul-07 05:31 071 1 gusting 2 25.6
2020-Jul-07 05:16 071 0 gusting 4 25.6
2020-Jul-07 05:01 074 0 gusting 2 25.6
2020-Jul-07 04:46 208 25.6
2020-Jul-07 04:31 208 25.0
2020-Jul-07 04:16 208 25.0
2020-Jul-07 04:01 208 25.0
2020-Jul-07 03:46 265 0 gusting 2 26.1
2020-Jul-07 03:30 265 25.6
2020-Jul-07 03:16 265 25.6
2020-Jul-07 03:01 265 2 gusting 6 25.6
2020-Jul-07 02:45 248 6 gusting 11 26.1
2020-Jul-07 02:31 253 9 gusting 16 26.7
2020-Jul-07 02:16 236 9 gusting 13 26.7
2020-Jul-07 02:00 203 3 gusting 11 26.7
2020-Jul-07 01:46 207 6 gusting 12 26.7
2020-Jul-07 01:31 231 3 gusting 7 26.7
2020-Jul-07 01:15 114 4 gusting 10 27.2
2020-Jul-07 01:00 200 4 gusting 9 27.8
2020-Jul-07 00:45 189 3 gusting 7 27.8
2020-Jul-07 00:31 166 4 gusting 10 27.8
2020-Jul-07 00:15 194 2 gusting 8 27.8
2020-Jul-07 00:00 110 2 gusting 8 27.8
2020-Jul-06 23:45 179 2 gusting 8 27.8
2020-Jul-06 23:30 191 2 gusting 10 27.8
2020-Jul-06 23:15 172 4 gusting 9 27.8
2020-Jul-06 23:00 216 3 gusting 10 27.8
2020-Jul-06 22:46 179 2 gusting 8 27.8
2020-Jul-06 22:30 186 3 gusting 8 27.8
2020-Jul-06 22:15 187 4 gusting 10 27.8
2020-Jul-06 22:00 181 2 gusting 7 28.3
2020-Jul-06 21:45 182 3 gusting 7 28.3
2020-Jul-06 21:30 122 1 gusting 7 28.3
2020-Jul-06 21:15 198 2 gusting 7 28.3
2020-Jul-06 21:00 177 3 gusting 6 28.3
2020-Jul-06 20:45 213 2 gusting 7 28.3
2020-Jul-06 20:30 142 1 gusting 9 28.3
2020-Jul-06 20:15 181 2 gusting 7 28.3
2020-Jul-06 20:00 167 2 gusting 6 28.9
2020-Jul-06 19:45 101 1 gusting 5 28.3
2020-Jul-06 19:30 097 1 gusting 7 28.9
2020-Jul-06 19:15 114 3 gusting 8 28.3
2020-Jul-06 19:00 112 2 gusting 8 28.3
2020-Jul-06 18:45 075 2 gusting 8 28.3
2020-Jul-06 18:30 073 3 gusting 8 28.3
2020-Jul-06 18:15 096 3 gusting 8 28.3
2020-Jul-06 18:00 084 1 gusting 8 28.3
2020-Jul-06 17:45 098 5 gusting 6 28.3
2020-Jul-06 11:30 242 2 gusting 3 26.1
2020-Jul-06 11:16 289 26.1
2020-Jul-06 11:00 333 1 gusting 2 25.6
2020-Jul-06 10:45 231 25.6
2020-Jul-06 10:30 230 25.6
2020-Jul-06 10:15 216 25.6
2020-Jul-06 10:00 216 25.6
2020-Jul-06 09:45 216 26.1
2020-Jul-06 09:30 216 26.1
2020-Jul-06 09:15 216 25.6
2020-Jul-06 09:00 216 0 gusting 1 25.6
2020-Jul-06 08:46 216 0 gusting 3 26.1
2020-Jul-06 08:30 212 25.6
2020-Jul-06 08:15 212 0 gusting 1 25.6
2020-Jul-06 08:00 212 25.6
2020-Jul-06 07:45 212 25.6
2020-Jul-06 07:30 212 25.6
2020-Jul-06 07:15 212 25.6
2020-Jul-06 07:00 212 25.6
2020-Jul-06 06:45 212 25.6
2020-Jul-06 06:30 212 25.6
2020-Jul-06 06:15 205 3 gusting 7 25.6
2020-Jul-06 06:00 196 2 gusting 7 25.6
2020-Jul-06 05:45 178 6 gusting 10 26.1
2020-Jul-06 05:32 142 3 gusting 8 26.7
2020-Jul-06 05:18 191 2 gusting 7 27.2
2020-Jul-06 05:01 169 1 gusting 8 27.2
2020-Jul-06 04:46 186 3 gusting 8 27.2
2020-Jul-06 04:31 185 3 gusting 7 27.2
2020-Jul-06 04:16 196 3 gusting 7 27.8
2020-Jul-06 04:02 198 3 gusting 9 27.2
2020-Jul-06 03:46 237 1 gusting 9 27.2
2020-Jul-06 03:31 166 2 gusting 7 27.2
2020-Jul-06 03:17 186 2 gusting 12 27.8
2020-Jul-06 03:01 173 3 gusting 8 27.8
2020-Jul-06 02:46 114 3 gusting 8 27.8
2020-Jul-06 02:34 131 1 gusting 6 27.8
2020-Jul-06 02:16 055 2 gusting 6 27.8
2020-Jul-06 02:01 142 1 gusting 5 27.8
2020-Jul-06 01:46 170 2 gusting 5 27.8
2020-Jul-06 01:31 162 3 gusting 8 27.8
2020-Jul-06 01:16 201 1 gusting 4 27.8
2020-Jul-06 01:01 130 0 gusting 6 27.8
2020-Jul-06 00:45 175 2 gusting 8 27.8
2020-Jul-06 00:31 168 2 gusting 8 27.8
2020-Jul-06 00:16 108 3 gusting 7 28.3
2020-Jul-06 00:01 104 2 gusting 8 28.3
2020-Jul-05 23:45 091 5 gusting 8 28.3
2020-Jul-05 23:31 089 3 gusting 7 28.9
2020-Jul-05 23:15 104 0 gusting 8 28.9
2020-Jul-05 23:00 147 3 gusting 9 28.9
2020-Jul-05 22:45 130 3 gusting 7 28.9
2020-Jul-05 22:30 081 4 gusting 10 28.9
2020-Jul-05 22:15 100 5 gusting 12 28.9
2020-Jul-05 22:00 086 6 gusting 10 28.9
2020-Jul-05 21:45 084 4 gusting 11 28.9
2020-Jul-05 21:31 071 5 gusting 13 28.9
2020-Jul-05 21:15 093 5 gusting 10 28.9
2020-Jul-05 21:00 088 6 gusting 10 28.9
2020-Jul-05 20:45 114 6 gusting 9 28.9
2020-Jul-05 20:30 089 5 gusting 9 28.9
2020-Jul-05 20:16 083 3 gusting 6 28.9
2020-Jul-05 20:00 096 3 gusting 8 28.9
2020-Jul-05 19:45 120 1 gusting 11 29.4
2020-Jul-05 19:30 098 3 gusting 7 29.4
2020-Jul-05 19:15 107 3 gusting 9 29.4
2020-Jul-05 19:00 080 5 gusting 8 29.4
2020-Jul-05 18:45 112 2 gusting 9 29.4
2020-Jul-05 18:31 175 3 gusting 8 29.4
2020-Jul-05 18:15 097 5 gusting 9 29.4
2020-Jul-05 18:00 173 3 gusting 8 29.4